Time;durP1;ratioP1;P1;durP2;ratioP2;P2;SDS_P1;SDS_P2;PMS_P1;PMS_P2;Temp;Humidity;BMP_temperature;BMP_pressure;BME280_temperature;BME280_humidity;BME280_pressure;Samples;Min_cycle;Max_cycle;Signal;HPM_P1;HPM_P2
2021/03/24 00:01:08;;;;;;;8.10;6.07;;;;;;;3.22;74.66;94489.53;5056976;28;20774;-74
2021/03/24 00:03:35;;;;;;;11.60;7.10;;;;;;;3.26;73.96;94482.41;5056614;28;20796;-74
2021/03/24 00:06:01;;;;;;;10.47;6.87;;;;;;;3.22;74.13;94480.94;5056756;28;20441;-74
2021/03/24 00:08:28;;;;;;;12.13;7.70;;;;;;;3.30;74.84;94483.88;5056725;28;20932;-74
2021/03/24 00:10:54;;;;;;;11.80;8.17;;;;;;;3.35;74.53;94476.63;5056657;28;20449;-75
2021/03/24 00:13:21;;;;;;;8.50;6.70;;;;;;;3.30;75.08;94470.91;5056972;28;20449;-75
2021/03/24 00:15:47;;;;;;;10.63;8.00;;;;;;;3.28;76.61;94478.78;5056936;28;20929;-75
2021/03/24 00:18:14;;;;;;;7.67;6.80;;;;;;;3.31;76.48;94469.97;5056567;28;20449;-75
2021/03/24 00:20:43;;;;;;;10.27;7.77;;;;;;;3.31;77.15;94467.38;5056833;28;20441;-74
2021/03/24 00:23:10;;;;;;;8.67;6.33;;;;;;;3.31;76.07;94463.03;5056657;28;20516;-75
2021/03/24 00:25:36;;;;;;;9.20;7.70;;;;;;;3.37;76.53;94474.75;5056292;28;20464;-74
2021/03/24 00:28:04;;;;;;;19.13;8.87;;;;;;;3.38;75.67;94473.81;5056458;28;20483;-75
2021/03/24 00:30:34;;;;;;;13.07;9.00;;;;;;;3.39;75.62;94462.53;5056483;28;20495;-75
2021/03/24 00:33:00;;;;;;;11.73;8.37;;;;;;;3.38;74.60;94461.69;5056163;28;20460;-74
2021/03/24 00:35:27;;;;;;;12.70;9.37;;;;;;;3.38;75.38;94461.69;5056275;28;20467;-75
2021/03/24 00:37:56;;;;;;;13.10;10.63;;;;;;;3.42;75.07;94457.13;5056097;28;20445;-75
2021/03/24 00:40:28;;;;;;;17.00;9.23;;;;;;;3.42;74.59;94459.72;5055996;28;20452;-74
2021/03/24 00:42:54;;;;;;;13.13;8.83;;;;;;;3.39;74.80;94449.56;5055886;28;20476;-75
2021/03/24 00:45:20;;;;;;;9.17;8.27;;;;;;;3.41;74.28;94461.50;5021111;28;20448;-74
2021/03/24 00:47:47;;;;;;;15.60;8.67;;;;;;;3.39;75.18;94454.75;5055959;28;20480;-75
2021/03/24 00:50:16;;;;;;;11.97;7.50;;;;;;;3.29;75.40;94457.09;5056074;28;20445;-75
2021/03/24 00:52:42;;;;;;;14.40;10.47;;;;;;;3.28;75.72;94465.81;5056039;28;20449;-75
2021/03/24 00:55:11;;;;;;;14.00;9.50;;;;;;;3.09;77.51;94450.56;5056235;28;20448;-75
2021/03/24 00:57:38;;;;;;;9.60;7.90;;;;;;;3.19;78.75;94468.16;5055396;28;20473;-75
2021/03/24 01:00:06;;;;;;;11.00;8.40;;;;;;;3.11;79.88;94459.09;5055536;28;20454;-74
2021/03/24 01:02:32;;;;;;;10.90;7.83;;;;;;;3.05;81.09;94462.06;5054824;28;20801;-75
2021/03/24 01:05:01;;;;;;;11.60;7.00;;;;;;;2.99;82.43;94456.44;5055681;28;20472;-75
2021/03/24 01:07:27;;;;;;;12.60;10.13;;;;;;;2.89;84.77;94447.56;5055497;28;20449;-75
2021/03/24 01:09:53;;;;;;;10.83;8.10;;;;;;;2.74;86.29;94442.41;5055433;28;20528;-74
2021/03/24 01:12:21;;;;;;;16.27;8.73;;;;;;;2.70;87.37;94427.97;5055627;28;20824;-75
2021/03/24 01:14:47;;;;;;;13.80;10.03;;;;;;;2.71;88.61;94431.41;5055691;28;20463;-74
2021/03/24 01:17:13;;;;;;;12.17;8.60;;;;;;;2.65;89.92;94426.59;5055821;28;20448;-74
2021/03/24 01:19:39;;;;;;;11.10;7.97;;;;;;;2.65;90.58;94418.84;5055249;28;20458;-74
2021/03/24 01:22:06;;;;;;;10.60;7.80;;;;;;;2.70;90.85;94411.59;5055533;28;20437;-75
2021/03/24 01:24:32;;;;;;;14.47;8.60;;;;;;;2.81;90.60;94409.16;5019967;28;20484;-75
2021/03/24 01:26:58;;;;;;;9.40;8.40;;;;;;;2.86;90.66;94401.09;5055532;28;20456;-76
2021/03/24 01:29:26;;;;;;;13.93;7.13;;;;;;;2.91;90.09;94401.69;5055054;28;20449;-74
2021/03/24 01:31:52;;;;;;;11.63;8.73;;;;;;;2.99;88.40;94397.66;5055123;28;20449;-75
2021/03/24 01:34:18;;;;;;;10.03;8.00;;;;;;;3.09;88.42;94388.38;5055163;28;20936;-75
2021/03/24 01:36:45;;;;;;;13.00;8.57;;;;;;;3.18;87.52;94386.09;5055277;28;20437;-74
2021/03/24 01:39:11;;;;;;;13.90;9.93;;;;;;;3.15;86.22;94388.91;5020088;28;20441;-75
2021/03/24 01:41:38;;;;;;;12.87;8.87;;;;;;;3.02;84.77;94387.09;5054845;28;20445;-75
2021/03/24 01:44:05;;;;;;;11.03;7.83;;;;;;;2.95;84.25;94379.81;5054790;28;20484;-75
2021/03/24 01:46:39;;;;;;;9.80;8.17;;;;;;;2.86;84.27;94381.22;5019637;28;20441;-75
2021/03/24 01:49:11;;;;;;;11.40;8.63;;;;;;;2.85;83.09;94381.31;5054778;28;20448;-75
2021/03/24 01:51:42;;;;;;;12.80;9.20;;;;;;;2.76;83.02;94377.53;5054820;28;20941;-75
2021/03/24 01:54:13;;;;;;;13.00;9.40;;;;;;;2.69;83.07;94378.88;5055007;28;20473;-75
2021/03/24 01:56:42;;;;;;;11.53;9.30;;;;;;;2.68;83.59;94379.78;5054628;28;20448;-75
2021/03/24 01:59:09;;;;;;;16.90;11.30;;;;;;;2.56;84.46;94375.34;5054590;28;20578;-74
2021/03/24 02:01:37;;;;;;;10.80;8.63;;;;;;;2.55;84.98;94373.69;5054905;28;20445;-75
2021/03/24 02:04:03;;;;;;;12.10;9.40;;;;;;;2.55;85.13;94376.28;5054157;28;20485;-75
2021/03/24 02:06:48;;;;;;;11.67;8.97;;;;;;;2.42;86.99;94382.22;5019670;28;20476;-75
2021/03/24 02:09:24;;;;;;;20.70;10.30;;;;;;;2.44;88.78;94369.19;5054560;28;20449;-75
2021/03/24 02:11:57;;;;;;;15.30;10.27;;;;;;;2.42;89.16;94374.47;5054167;28;20449;-75
2021/03/24 02:14:28;;;;;;;12.77;10.50;;;;;;;2.36;89.32;94367.06;5054251;28;20453;-75
2021/03/24 02:16:57;;;;;;;12.30;9.50;;;;;;;2.33;89.55;94361.25;5054543;28;20464;-75
2021/03/24 02:19:45;;;;;;;15.30;10.43;;;;;;;2.40;88.70;94359.94;5054224;28;20449;-75
2021/03/24 02:22:15;;;;;;;19.63;10.47;;;;;;;2.34;88.47;94352.56;5053939;28;20207;-75
2021/03/24 02:24:48;;;;;;;15.55;10.43;;;;;;;2.38;88.27;94354.03;5054044;28;20488;-75
2021/03/24 02:27:19;;;;;;;14.20;10.47;;;;;;;2.43;87.71;94358.00;5053927;28;20217;-75
2021/03/24 02:29:51;;;;;;;13.80;10.67;;;;;;;2.39;86.95;94351.34;5054242;28;20457;-74
2021/03/24 02:32:21;;;;;;;15.10;11.15;;;;;;;2.39;86.09;94353.94;5053833;28;20448;-75
2021/03/24 02:34:49;;;;;;;15.80;10.57;;;;;;;2.39;86.11;94361.72;5054089;28;20229;-75
2021/03/24 02:37:18;;;;;;;15.80;10.33;;;;;;;2.33;86.12;94356.91;5034905;28;20844;-74
2021/03/24 02:39:45;;;;;;;19.83;12.00;;;;;;;2.31;85.82;94353.56;5053854;28;20441;-74
2021/03/24 02:42:13;;;;;;;13.80;10.33;;;;;;;2.36;86.48;94351.53;5053674;28;20445;-74
2021/03/24 02:44:42;;;;;;;16.57;12.00;;;;;;;2.35;85.97;94349.06;5053867;28;20497;-75
2021/03/24 02:47:10;;;;;;;13.53;9.87;;;;;;;2.33;85.84;94356.09;5053032;28;20495;-75
2021/03/24 02:49:39;;;;;;;14.85;9.80;;;;;;;2.33;86.48;94349.16;5052926;28;20448;-74
2021/03/24 02:52:07;;;;;;;13.83;10.53;;;;;;;2.38;86.21;94349.69;5052991;28;20210;-75
2021/03/24 02:54:34;;;;;;;12.80;11.20;;;;;;;2.35;87.29;94354.22;5052807;28;20450;-75
2021/03/24 02:57:01;;;;;;;17.47;11.87;;;;;;;2.35;87.41;94343.88;5052568;28;20449;-74
2021/03/24 02:59:28;;;;;;;15.80;11.03;;;;;;;2.35;87.19;94352.47;5052488;28;20441;-75
2021/03/24 03:02:04;;;;;;;16.87;11.50;;;;;;;2.38;87.71;94349.69;5052751;28;21014;-75
2021/03/24 03:04:36;;;;;;;15.60;10.57;;;;;;;2.43;87.77;94354.59;5053243;28;20477;-75
2021/03/24 03:07:07;;;;;;;14.23;10.60;;;;;;;2.41;86.84;94340.91;5053281;28;20532;-74
2021/03/24 03:09:40;;;;;;;13.80;10.90;;;;;;;2.47;86.13;94358.63;5053465;28;20448;-75
2021/03/24 03:12:14;;;;;;;14.60;11.40;;;;;;;2.47;86.51;94343.09;5053424;28;20437;-74
2021/03/24 03:14:46;;;;;;;15.80;11.93;;;;;;;2.56;86.36;94347.69;5052974;28;20461;-74
2021/03/24 03:17:18;;;;;;;12.93;10.93;;;;;;;2.63;85.47;94345.59;5053293;28;20526;-75
2021/03/24 03:19:49;;;;;;;14.07;10.10;;;;;;;2.55;85.43;94340.03;5053090;28;20445;-75
2021/03/24 03:22:20;;;;;;;13.13;11.43;;;;;;;2.53;85.98;94352.25;5053472;28;20449;-75
2021/03/24 03:24:51;;;;;;;14.13;10.93;;;;;;;2.49;85.76;94349.84;5052965;28;20489;-75
2021/03/24 03:27:21;;;;;;;14.07;11.03;;;;;;;2.38;87.27;94351.44;5053058;28;20441;-74
2021/03/24 03:29:51;;;;;;;17.33;11.57;;;;;;;2.44;86.62;94353.66;5053344;28;20515;-75
2021/03/24 03:32:21;;;;;;;15.83;12.40;;;;;;;2.35;87.08;94355.06;5053627;28;20521;-76
2021/03/24 03:34:53;;;;;;;16.83;12.67;;;;;;;2.35;88.96;94355.06;5052811;28;20781;-75
2021/03/24 03:37:21;;;;;;;16.97;11.33;;;;;;;2.32;88.03;94354.41;5053460;28;20445;-74
2021/03/24 03:39:49;;;;;;;15.93;11.63;;;;;;;2.31;88.77;94345.78;5053047;28;20453;-74
2021/03/24 03:42:16;;;;;;;15.80;11.53;;;;;;;2.30;90.11;94351.91;5053281;28;20472;-75
2021/03/24 03:44:43;;;;;;;15.27;10.85;;;;;;;2.24;90.59;94360.03;5052939;28;20484;-75
2021/03/24 03:47:12;;;;;;;17.55;12.48;;;;;;;2.15;91.42;94350.25;5052780;28;20260;-75
2021/03/24 03:49:41;;;;;;;17.30;12.15;;;;;;;2.12;92.38;94343.53;5053032;28;20195;-75
2021/03/24 03:52:25;;;;;;;14.23;12.60;;;;;;;2.16;93.13;94345.00;5053011;28;20209;-75
2021/03/24 03:55:01;;;;;;;16.80;13.17;;;;;;;2.08;93.26;94341.22;5053070;28;20905;-75
2021/03/24 03:57:35;;;;;;;15.30;11.90;;;;;;;2.04;93.66;94344.91;5052939;28;20602;-74
2021/03/24 04:00:09;;;;;;;14.23;11.60;;;;;;;2.08;93.55;94341.22;5052647;28;20445;-75
2021/03/24 04:02:40;;;;;;;15.50;11.68;;;;;;;2.10;92.77;94340.19;5052658;28;20206;-75
2021/03/24 04:05:10;;;;;;;19.20;12.10;;;;;;;2.16;92.32;94344.16;5052851;28;20207;-75
2021/03/24 04:07:41;;;;;;;16.37;12.30;;;;;;;2.17;91.55;94349.25;5052567;28;20566;-75
2021/03/24 04:10:09;;;;;;;18.17;12.50;;;;;;;2.24;91.36;94352.28;5052697;28;20488;-74
2021/03/24 04:12:38;;;;;;;15.68;12.43;;;;;;;2.19;89.44;94343.97;5017644;28;20207;-75
2021/03/24 04:15:09;;;;;;;21.07;13.53;;;;;;;2.20;89.06;94355.97;5052778;28;20566;-75
2021/03/24 04:17:44;;;;;;;18.58;12.45;;;;;;;2.26;88.06;94354.78;5052890;28;20475;-75
2021/03/24 04:20:13;;;;;;;16.23;11.10;;;;;;;2.21;88.11;94356.81;5052812;28;20198;-75
2021/03/24 04:22:42;;;;;;;12.90;11.50;;;;;;;2.18;88.45;94356.06;5052375;28;20498;-75
2021/03/24 04:25:14;;;;;;;14.50;11.53;;;;;;;2.17;89.21;94357.00;5052782;28;20446;-75
2021/03/24 04:27:42;;;;;;;20.02;13.60;;;;;;;2.12;88.50;94363.38;5018818;28;20452;-75
2021/03/24 04:30:13;;;;;;;13.75;10.70;;;;;;;2.04;88.60;94363.03;5052235;28;20663;-75
2021/03/24 04:32:39;;;;;;;16.20;13.83;;;;;;;2.02;89.37;94376.03;5052635;28;20205;-75
2021/03/24 04:35:09;;;;;;;15.80;11.83;;;;;;;2.03;89.78;94371.72;5052528;28;20441;-74
2021/03/24 04:37:40;;;;;;;21.70;13.45;;;;;;;2.02;89.83;94377.78;5018627;28;20445;-74
2021/03/24 04:40:15;;;;;;;22.80;13.00;;;;;;;1.99;90.85;94380.56;5056025;28;20264;-75
2021/03/24 04:42:47;;;;;;;20.38;14.65;;;;;;;1.95;91.29;94374.75;5056096;28;20445;-75
2021/03/24 04:45:27;;;;;;;18.83;13.32;;;;;;;2.01;92.28;94386.47;5055964;28;20202;-75
2021/03/24 04:47:55;;;;;;;17.80;13.23;;;;;;;2.02;91.58;94381.19;5056144;28;20294;-76
2021/03/24 04:50:25;;;;;;;15.88;12.38;;;;;;;2.06;91.71;94380.13;5056006;28;20206;-75
2021/03/24 04:52:54;;;;;;;21.42;15.30;;;;;;;2.11;92.68;94382.44;5055990;28;20536;-76
2021/03/24 04:55:25;;;;;;;23.95;12.75;;;;;;;2.11;94.00;94383.25;5055991;28;20211;-77
2021/03/24 04:57:55;;;;;;;19.65;14.13;;;;;;;2.13;94.58;94385.75;5056029;28;20253;-75
2021/03/24 05:00:29;;;;;;;16.42;13.35;;;;;;;2.13;94.54;94388.34;5055712;28;20252;-74
2021/03/24 05:03:00;;;;;;;17.83;14.43;;;;;;;2.13;94.69;94396.09;5055554;28;20706;-75
2021/03/24 05:05:30;;;;;;;20.13;13.57;;;;;;;2.06;95.08;94400.00;5055602;28;20199;-75
2021/03/24 05:08:05;;;;;;;19.23;14.90;;;;;;;2.15;95.74;94402.03;5055509;28;20206;-75
2021/03/24 05:10:33;;;;;;;21.65;14.73;;;;;;;2.13;95.12;94396.94;5055544;28;20206;-75
2021/03/24 05:13:07;;;;;;;19.90;12.98;;;;;;;2.05;95.84;94404.34;5055576;28;20199;-75
2021/03/24 05:15:38;;;;;;;20.98;15.30;;;;;;;2.06;95.63;94394.81;5055580;28;20206;-75
2021/03/24 05:18:07;;;;;;;20.65;14.77;;;;;;;2.11;95.84;94391.03;5055045;28;20588;-75
2021/03/24 05:20:39;;;;;;;21.50;16.02;;;;;;;2.08;94.95;94398.13;5055780;28;20207;-75
2021/03/24 05:23:09;;;;;;;28.83;15.50;;;;;;;1.98;94.72;94391.84;5055315;28;20567;-76
2021/03/24 05:25:40;;;;;;;26.70;16.77;;;;;;;2.06;94.87;94412.94;5055401;28;20213;-76
2021/03/24 05:28:14;;;;;;;30.35;18.33;;;;;;;2.03;94.86;94410.53;5055257;28;20206;-76
2021/03/24 05:30:45;;;;;;;22.75;17.05;;;;;;;2.06;95.46;94403.41;5055011;28;20194;-74
2021/03/24 05:33:19;;;;;;;25.02;16.42;;;;;;;2.08;94.63;94414.50;5020357;28;20205;-76
2021/03/24 05:35:51;;;;;;;24.00;16.67;;;;;;;2.17;94.36;94402.75;5055229;28;20204;-75
2021/03/24 05:38:23;;;;;;;28.17;16.15;;;;;;;2.15;94.12;94422.72;5055447;28;20556;-74
2021/03/24 05:41:00;;;;;;;18.83;13.50;;;;;;;2.14;93.42;94419.31;5055324;28;20214;-74
2021/03/24 05:43:51;;;;;;;17.08;13.48;;;;;;;2.12;95.61;94426.31;5054823;28;20308;-75
2021/03/24 05:46:40;;;;;;;18.80;13.70;;;;;;;2.21;95.10;94435.28;5054750;28;20274;-74
2021/03/24 05:49:21;;;;;;;23.67;16.08;;;;;;;2.24;95.27;94440.28;4993062;28;21147;-74
2021/03/24 05:51:58;;;;;;;20.27;13.53;;;;;;;2.24;95.43;94435.09;4993365;28;20205;-74
2021/03/24 05:54:57;;;;;;;18.65;13.32;;;;;;;2.23;95.74;94448.97;4944708;28;20440;-74
2021/03/24 05:57:41;;;;;;;23.90;14.60;;;;;;;2.27;96.55;94468.56;4916443;29;20258;-76
2021/03/24 06:00:26;;;;;;;16.30;12.27;;;;;;;2.19;96.39;94470.78;4916200;29;20212;-75
2021/03/24 06:03:03;;;;;;;17.63;13.20;;;;;;;2.25;96.80;94472.19;4916486;29;20459;-75
2021/03/24 06:05:36;;;;;;;20.02;12.63;;;;;;;2.08;97.38;94473.19;4916091;29;20695;-75
2021/03/24 06:08:36;;;;;;;23.20;14.35;;;;;;;1.97;98.08;94483.31;4916165;29;20211;-75
2021/03/24 06:11:26;;;;;;;27.13;15.48;;;;;;;1.97;98.59;94496.25;4896964;29;20214;-75
2021/03/24 06:14:21;;;;;;;20.83;13.10;;;;;;;1.92;98.64;94503.44;4897377;29;20216;-74
2021/03/24 06:17:14;;;;;;;17.40;11.55;;;;;;;1.90;99.08;94513.03;4896951;29;20665;-74
2021/03/24 06:19:53;;;;;;;18.27;9.95;;;;;;;1.66;99.23;94513.50;4897055;29;20215;-78
2021/03/24 06:22:33;;;;;;;12.05;7.55;;;;;;;1.51;99.95;94533.31;4850080;29;20257;-76
2021/03/24 06:25:27;;;;;;;6.35;4.43;;;;;;;1.36;96.35;94552.25;4896800;29;20220;-77
2021/03/24 06:28:10;;;;;;;13.03;4.50;;;;;;;1.39;93.17;94569.31;4934621;29;20207;-76
2021/03/24 06:30:47;;;;;;;5.70;5.20;;;;;;;1.44;90.91;94582.84;4934806;29;20445;-76
2021/03/24 06:33:52;;;;;;;3.75;3.25;;;;;;;1.35;87.99;94593.69;4887714;29;20217;-76
2021/03/24 06:37:04;;;;;;;9.05;4.43;;;;;;;1.50;88.71;94604.03;4973000;28;20203;-78
2021/03/24 06:39:57;;;;;;;8.00;6.45;;;;;;;1.63;86.94;94611.94;4896528;29;20211;-76
2021/03/24 06:42:50;;;;;;;5.20;4.32;;;;;;;1.83;86.95;94609.13;4897192;29;20218;-77
2021/03/24 06:45:36;;;;;;;6.38;4.70;;;;;;;1.85;83.52;94625.38;4896868;29;20313;-77
2021/03/24 06:48:17;;;;;;;8.88;5.60;;;;;;;1.88;81.92;94628.72;4927953;28;20685;-77
2021/03/24 06:51:27;;;;;;;6.30;3.80;;;;;;;1.82;80.41;94635.91;4972942;28;20205;-77
2021/03/24 06:54:12;;;;;;;4.20;2.85;;;;;;;1.84;80.17;94634.06;4972856;28;20445;-76
2021/03/24 06:57:11;;;;;;;7.25;4.45;;;;;;;1.74;82.97;94639.84;4972862;28;20203;-76
2021/03/24 07:00:00;;;;;;;8.25;3.00;;;;;;;1.45;78.77;94644.81;4915165;29;20213;-76
2021/03/24 07:06:18;;;;;;;7.57;3.10;;;;;;;1.72;78.24;94660.56;4915402;29;20216;-76
2021/03/24 07:08:53;;;;;;;10.38;5.82;;;;;;;2.34;76.20;94669.25;4843595;29;20611;-74
2021/03/24 07:11:43;;;;;;;4.55;2.30;;;;;;;2.81;75.61;94668.25;4859174;29;20273;-75
2021/03/24 07:14:31;;;;;;;5.00;4.10;;;;;;;3.33;69.71;94668.59;4815100;29;20212;-75
2021/03/24 07:17:26;;;;;;;6.47;3.80;;;;;;;3.56;68.75;94671.56;4858919;29;20454;-77
2021/03/24 07:20:07;;;;;;;7.77;4.70;;;;;;;3.77;68.59;94669.44;4843671;29;20446;-76
2021/03/24 07:22:42;;;;;;;5.73;4.00;;;;;;;3.69;66.35;94670.72;4828157;29;20449;-76
2021/03/24 07:25:42;;;;;;;6.53;5.87;;;;;;;3.59;64.53;94680.00;4858901;29;20497;-74
2021/03/24 07:28:33;;;;;;;6.50;4.10;;;;;;;3.19;64.23;94676.38;4856464;29;21290;-76
2021/03/24 07:31:26;;;;;;;11.63;6.50;;;;;;;3.07;65.32;94688.31;4803973;29;20523;-75
2021/03/24 07:34:03;;;;;;;2.70;2.30;;;;;;;2.96;64.82;94679.50;4804081;29;20517;-77
2021/03/24 07:36:54;;;;;;;4.40;3.63;;;;;;;2.94;65.73;94691.72;4838494;29;20986;-75
2021/03/24 07:39:42;;;;;;;2.93;2.53;;;;;;;3.03;65.83;94696.34;4877584;29;20453;-76
2021/03/24 07:42:33;;;;;;;6.17;3.80;;;;;;;2.92;65.86;94703.94;4877026;29;21441;-75
2021/03/24 07:45:17;;;;;;;11.10;5.70;;;;;;;2.84;66.71;94708.69;4882581;29;20504;-76
2021/03/24 07:48:10;;;;;;;14.73;6.93;;;;;;;2.77;68.18;94706.47;4915186;29;20435;-76
2021/03/24 07:50:39;;;;;;;12.70;8.07;;;;;;;2.67;68.75;94715.69;4925352;28;20452;-76
2021/03/24 07:53:18;;;;;;;10.53;7.50;;;;;;;2.41;70.35;94724.94;4972219;28;20300;-76
2021/03/24 07:55:51;;;;;;;19.20;9.27;;;;;;;2.46;72.02;94722.91;4972212;28;20441;-76
2021/03/24 07:58:55;;;;;;;10.80;7.82;;;;;;;2.42;71.87;94733.53;4972214;28;20310;-75
2021/03/24 08:01:32;;;;;;;12.98;8.95;;;;;;;2.45;71.24;94731.59;4858597;29;20212;-75
2021/03/24 08:04:20;;;;;;;8.43;5.87;;;;;;;2.44;71.94;94737.69;4858885;29;20319;-75
2021/03/24 08:06:59;;;;;;;8.88;6.20;;;;;;;2.42;70.55;94739.53;4858587;29;20469;-76
2021/03/24 08:09:36;;;;;;;10.18;6.32;;;;;;;2.36;70.42;94742.47;4895654;29;20236;-76
2021/03/24 08:12:17;;;;;;;11.57;7.27;;;;;;;2.18;70.51;94746.06;4897045;29;20330;-76
2021/03/24 08:15:02;;;;;;;11.88;7.05;;;;;;;2.20;70.71;94743.38;4899544;29;20455;-77
2021/03/24 08:17:39;;;;;;;13.68;7.75;;;;;;;2.29;70.42;94748.06;4899377;29;20260;-77
2021/03/24 08:20:19;;;;;;;10.53;6.97;;;;;;;2.30;70.31;94745.38;4899112;29;20208;-76
2021/03/24 08:23:16;;;;;;;14.52;9.27;;;;;;;2.36;69.59;94757.19;4901585;29;20444;-87
2021/03/24 08:26:05;;;;;;;6.20;5.32;;;;;;;2.31;68.00;94751.41;4861797;29;20216;-77
2021/03/24 08:28:42;;;;;;;5.60;4.90;;;;;;;2.45;68.31;94760.09;4816266;29;20269;-77
2021/03/24 08:31:45;;;;;;;8.90;5.40;;;;;;;2.56;67.61;94761.22;4861624;29;20494;-76
2021/03/24 08:34:25;;;;;;;8.73;6.18;;;;;;;2.79;67.57;94755.59;4860618;29;20456;-76
2021/03/24 08:37:24;;;;;;;12.30;7.10;;;;;;;2.89;65.48;94767.13;4861510;29;20209;-76
2021/03/24 08:40:11;;;;;;;26.93;10.20;;;;;;;2.88;65.53;94773.22;4994569;28;20538;-76
2021/03/24 08:43:05;;;;;;;10.10;5.67;;;;;;;2.76;64.67;94766.97;4994557;28;20467;-76
2021/03/24 08:45:38;;;;;;;5.40;3.10;;;;;;;2.40;65.13;94767.28;4994554;28;20444;-76
2021/03/24 08:48:12;;;;;;;14.07;8.20;;;;;;;2.63;65.62;94767.75;4994359;28;20976;-76
2021/03/24 08:50:44;;;;;;;7.57;5.73;;;;;;;2.76;65.96;94768.72;4994552;28;20439;-76
2021/03/24 08:53:21;;;;;;;6.07;3.80;;;;;;;2.85;65.66;94768.22;4994538;28;20443;-75
2021/03/24 08:55:59;;;;;;;4.47;3.80;;;;;;;3.00;64.61;94772.53;4961934;28;20539;-76
2021/03/24 08:58:27;;;;;;;5.30;3.50;;;;;;;3.05;65.54;94773.09;4994402;28;20476;-76
2021/03/24 09:01:03;;;;;;;6.63;4.67;;;;;;;2.94;64.84;94765.13;4994106;28;20205;-76
2021/03/24 09:03:49;;;;;;;5.83;4.10;;;;;;;3.04;65.54;94768.84;5055861;28;20538;-75
2021/03/24 09:06:24;;;;;;;6.30;3.50;;;;;;;2.90;65.58;94774.00;5054534;28;20440;-74
2021/03/24 09:09:01;;;;;;;3.40;2.83;;;;;;;2.75;65.42;94777.44;5055791;28;20197;-75
2021/03/24 09:11:44;;;;;;;3.83;2.40;;;;;;;2.62;64.32;94787.66;5055765;28;20449;-75
2021/03/24 09:14:24;;;;;;;3.10;2.50;;;;;;;2.84;65.21;94792.44;5032152;28;20443;-74
2021/03/24 09:17:27;;;;;;;4.27;3.43;;;;;;;3.20;61.89;94793.88;5033364;28;20449;-74
2021/03/24 09:20:24;;;;;;;3.10;2.80;;;;;;;3.17;62.47;94799.22;5033092;28;20491;-74
2021/03/24 09:23:17;;;;;;;4.70;3.63;;;;;;;3.04;63.64;94809.47;4935666;29;20891;-75
2021/03/24 09:25:49;;;;;;;2.43;2.20;;;;;;;2.77;63.82;94811.84;4935989;29;21195;-75
2021/03/24 09:28:33;;;;;;;3.60;3.27;;;;;;;2.82;63.58;94815.03;4936095;29;20450;-74
2021/03/24 09:31:33;;;;;;;4.60;2.77;;;;;;;3.19;62.87;94818.16;4935687;29;20455;-76
2021/03/24 09:34:03;;;;;;;3.60;3.30;;;;;;;3.50;59.88;94807.66;4958300;28;20453;-76
2021/03/24 09:36:57;;;;;;;4.63;3.13;;;;;;;3.50;58.71;94812.03;4974472;28;20910;-75
2021/03/24 09:39:30;;;;;;;5.13;2.80;;;;;;;3.37;60.82;94827.44;4974334;28;20502;-75
2021/03/24 09:42:01;;;;;;;7.80;3.90;;;;;;;3.26;62.63;94828.06;4974177;28;20849;-75
2021/03/24 09:44:35;;;;;;;6.53;4.23;;;;;;;2.96;63.87;94835.00;4973976;28;20497;-75
2021/03/24 09:47:02;;;;;;;3.20;2.90;;;;;;;2.67;62.24;94826.25;4974088;28;20453;-75
2021/03/24 09:49:35;;;;;;;5.37;2.70;;;;;;;2.39;62.57;94838.09;4926404;28;20449;-75
2021/03/24 09:52:22;;;;;;;3.53;2.63;;;;;;;2.60;63.08;94835.25;4974067;28;21149;-75
2021/03/24 09:55:13;;;;;;;2.10;1.90;;;;;;;2.71;63.76;94830.34;4973683;28;20452;-75
2021/03/24 09:57:58;;;;;;;3.07;2.80;;;;;;;2.76;63.37;94836.09;4973408;28;20584;-75
2021/03/24 10:00:27;;;;;;;3.77;3.47;;;;;;;2.89;63.01;94829.31;5036832;28;20563;-75
2021/03/24 10:03:01;;;;;;;10.33;4.87;;;;;;;2.95;61.31;94841.94;5054606;28;20449;-75
2021/03/24 10:05:34;;;;;;;10.10;5.17;;;;;;;2.78;59.73;94847.22;5019863;28;20484;-74
2021/03/24 10:08:08;;;;;;;7.20;4.60;;;;;;;2.83;58.66;94842.59;5054450;28;20452;-75
2021/03/24 10:10:36;;;;;;;7.20;5.60;;;;;;;3.02;60.37;94848.44;5020237;28;20453;-74
2021/03/24 10:13:14;;;;;;;5.00;2.70;;;;;;;3.22;58.90;94829.19;5054503;28;20477;-74
2021/03/24 10:15:46;;;;;;;3.33;3.03;;;;;;;3.23;57.72;94848.16;5053904;28;20448;-74
2021/03/24 10:18:21;;;;;;;5.17;4.40;;;;;;;3.48;57.82;94853.63;5054205;28;20449;-74
2021/03/24 10:20:57;;;;;;;4.83;3.87;;;;;;;3.17;55.44;94864.03;5054210;28;20436;-75
2021/03/24 10:23:28;;;;;;;2.83;2.47;;;;;;;3.02;55.87;94848.44;5050834;28;20457;-75
2021/03/24 10:25:59;;;;;;;8.93;2.13;;;;;;;2.84;54.89;94854.63;5036188;28;20450;-76
2021/03/24 10:28:37;;;;;;;3.40;2.80;;;;;;;3.34;56.64;94848.38;5034015;28;20441;-76
2021/03/24 10:31:12;;;;;;;3.50;2.83;;;;;;;2.87;54.44;94857.06;5045863;28;20256;-76
2021/03/24 10:33:44;;;;;;;4.33;3.30;;;;;;;3.04;55.71;94851.78;5040825;28;20583;-76
2021/03/24 10:36:19;;;;;;;11.70;6.30;;;;;;;3.27;58.36;94842.72;5031255;28;20465;-77
2021/03/24 10:38:52;;;;;;;10.47;5.20;;;;;;;3.44;57.98;94849.50;5034213;28;20434;-76
2021/03/24 10:41:42;;;;;;;5.70;3.60;;;;;;;3.62;56.88;94842.41;5034585;28;20529;-76
2021/03/24 10:44:17;;;;;;;10.13;5.30;;;;;;;3.70;55.66;94840.19;5031685;28;20486;-76
2021/03/24 10:46:51;;;;;;;2.93;2.50;;;;;;;3.84;53.66;94842.84;5031839;28;20441;-76
2021/03/24 10:49:23;;;;;;;3.00;2.73;;;;;;;3.68;54.48;94848.09;5031832;28;20453;-77
2021/03/24 10:52:01;;;;;;;3.90;3.30;;;;;;;3.50;54.58;94843.97;5031664;28;20435;-76
2021/03/24 10:54:32;;;;;;;4.00;2.67;;;;;;;3.64;54.42;94849.19;5031946;28;20454;-76
2021/03/24 10:57:30;;;;;;;2.50;2.30;;;;;;;3.58;53.82;94844.38;5015508;28;20448;-74
2021/03/24 11:00:06;;;;;;;5.43;4.60;;;;;;;3.01;56.55;94839.00;4972782;28;20984;-76
2021/03/24 11:02:38;;;;;;;6.10;3.27;;;;;;;3.42;57.63;94849.59;4972567;28;20464;-76
2021/03/24 11:05:10;;;;;;;6.10;3.13;;;;;;;3.50;56.76;94849.16;4942013;28;20491;-75
2021/03/24 11:07:42;;;;;;;3.20;2.90;;;;;;;3.41;54.95;94839.31;4972574;28;20831;-75
2021/03/24 11:10:39;;;;;;;6.10;3.30;;;;;;;3.46;54.84;94836.44;4972646;28;20776;-75
2021/03/24 11:13:12;;;;;;;11.50;5.10;;;;;;;3.46;54.59;94832.09;4982372;28;20448;-75
2021/03/24 11:15:53;;;;;;;8.13;4.17;;;;;;;3.41;55.35;94840.13;4973809;28;20464;-76
2021/03/24 11:18:25;;;;;;;3.43;3.13;;;;;;;3.62;57.07;94832.03;4972375;28;20925;-75
2021/03/24 11:20:55;;;;;;;4.23;3.83;;;;;;;3.49;54.87;94837.13;4979866;28;20450;-75
2021/03/24 11:23:27;;;;;;;13.17;5.33;;;;;;;3.54;55.52;94834.25;5001341;28;20454;-76
2021/03/24 11:25:58;;;;;;;4.27;3.13;;;;;;;3.57;54.10;94834.91;5011354;28;20443;-75
2021/03/24 11:28:29;;;;;;;5.70;4.00;;;;;;;3.74;54.58;94839.09;5011502;28;20500;-74
2021/03/24 11:31:04;;;;;;;7.33;4.73;;;;;;;3.82;54.60;94842.09;5011349;28;20538;-74
2021/03/24 11:33:37;;;;;;;8.17;2.47;;;;;;;3.97;53.25;94835.13;5011658;28;20457;-74
2021/03/24 11:36:10;;;;;;;6.20;4.10;;;;;;;3.98;53.75;94834.22;5006281;28;20445;-75
2021/03/24 11:38:43;;;;;;;9.17;4.30;;;;;;;3.90;52.67;94837.28;5053446;28;20495;-75
2021/03/24 11:41:14;;;;;;;2.93;2.70;;;;;;;3.71;49.60;94829.72;5055077;28;20444;-77
2021/03/24 11:43:44;;;;;;;5.17;4.00;;;;;;;3.93;52.64;94831.06;5053022;28;20476;-76
2021/03/24 11:46:22;;;;;;;7.20;2.30;;;;;;;4.03;51.40;94832.16;5053410;28;20449;-75
2021/03/24 11:49:02;;;;;;;5.70;2.93;;;;;;;4.27;51.77;94829.84;5057194;28;20475;-75
2021/03/24 11:51:41;;;;;;;10.20;4.27;;;;;;;4.50;51.01;94825.84;5057612;28;20947;-76
2021/03/24 11:54:24;;;;;;;2.80;2.47;;;;;;;4.44;47.11;94826.22;5057299;28;20445;-77
2021/03/24 11:57:05;;;;;;;2.10;1.90;;;;;;;4.32;48.60;94827.81;5057051;28;20929;-76
2021/03/24 11:59:44;;;;;;;3.00;2.43;;;;;;;4.39;48.69;94820.50;5057136;28;20518;-76
2021/03/24 12:02:29;;;;;;;4.30;3.90;;;;;;;4.52;48.89;94816.19;5056813;28;20474;-76
2021/03/24 12:05:14;;;;;;;3.60;2.87;;;;;;;4.07;48.82;94815.50;5056675;28;20496;-76
2021/03/24 12:07:56;;;;;;;6.33;3.03;;;;;;;3.82;49.26;94813.53;5056660;28;20448;-76
2021/03/24 12:10:30;;;;;;;4.83;3.30;;;;;;;3.85;50.19;94820.31;5056765;28;20429;-76
2021/03/24 12:13:17;;;;;;;8.20;5.23;;;;;;;3.95;50.18;94809.28;5056987;28;20440;-75
2021/03/24 12:15:44;;;;;;;9.97;3.90;;;;;;;4.14;48.85;94805.56;5056899;28;20977;-76
2021/03/24 12:18:17;;;;;;;7.10;4.13;;;;;;;4.10;48.14;94807.53;5056330;28;20441;-75